createdAt,value
2022-09-28T00:01:34.895Z,10.18
2022-09-28T00:03:58.215Z,10.18
2022-09-28T00:06:22.474Z,10.21
2022-09-28T00:08:44.142Z,10.25
2022-09-28T00:11:08.058Z,10.31
2022-09-28T00:13:31.660Z,10.32
2022-09-28T00:16:11.114Z,10.32
2022-09-28T00:18:33.534Z,10.33
2022-09-28T00:21:15.498Z,10.41
2022-09-28T00:23:59.977Z,10.23
2022-09-28T00:26:21.597Z,10.24
2022-09-28T00:28:42.992Z,10.28
2022-09-28T00:31:04.588Z,10.37
2022-09-28T00:33:26.048Z,10.33
2022-09-28T00:35:47.495Z,10.23
2022-09-28T00:38:09.470Z,10.21
2022-09-28T00:40:31.025Z,10.32
2022-09-28T00:42:52.522Z,10.29
2022-09-28T00:45:13.991Z,10.25
2022-09-28T00:47:49.823Z,10.27
2022-09-28T00:50:18.148Z,10.30
2022-09-28T00:53:02.458Z,10.22
2022-09-28T00:55:58.886Z,10.01
2022-09-28T00:58:30.267Z,9.99
2022-09-28T01:00:54.914Z,10.17
2022-09-28T01:03:16.958Z,10.18
2022-09-28T01:05:40.007Z,10.28
2022-09-28T01:08:02.801Z,10.28
2022-09-28T01:10:24.391Z,10.23
2022-09-28T01:12:45.840Z,10.21
2022-09-28T01:15:07.664Z,10.28
2022-09-28T01:17:53.414Z,10.05
2022-09-28T01:20:27.619Z,10.13
2022-09-28T01:23:14.186Z,10.09
2022-09-28T01:26:00.567Z,10.15
2022-09-28T01:28:27.664Z,10.18
2022-09-28T01:31:12.630Z,10.19
2022-09-28T01:33:58.715Z,10.33
2022-09-28T01:36:46.453Z,10.31
2022-09-28T01:39:12.790Z,10.34
2022-09-28T01:41:40.315Z,10.31
2022-09-28T01:44:04.711Z,10.26
2022-09-28T01:46:37.936Z,10.34
2022-09-28T01:49:06.752Z,10.34
2022-09-28T01:52:00.287Z,10.23
2022-09-28T01:54:36.374Z,10.24
2022-09-28T01:57:26.063Z,10.27
2022-09-28T02:00:01.253Z,10.43
2022-09-28T02:02:29.645Z,10.38
2022-09-28T02:04:58.660Z,10.46
2022-09-28T02:07:37.451Z,10.41
2022-09-28T02:10:06.999Z,10.55
2022-09-28T02:12:37.287Z,10.59
2022-09-28T02:15:08.327Z,10.59
2022-09-28T02:17:29.799Z,10.57
2022-09-28T02:19:51.493Z,10.58
2022-09-28T02:22:33.829Z,10.55
2022-09-28T02:24:59.674Z,10.71
2022-09-28T02:27:41.248Z,10.68
2022-09-28T02:30:05.306Z,10.54
2022-09-28T02:32:28.882Z,10.54
2022-09-28T02:34:50.403Z,10.61
2022-09-28T02:37:12.543Z,10.41
2022-09-28T02:39:34.020Z,10.50
2022-09-28T02:42:05.763Z,10.58
2022-09-28T02:45:07.275Z,10.36
2022-09-28T02:47:50.547Z,10.60
2022-09-28T02:50:25.515Z,10.43
2022-09-28T02:53:24.385Z,10.41
2022-09-28T02:56:05.363Z,10.58
2022-09-28T02:58:47.933Z,10.59
2022-09-28T03:01:21.371Z,10.63
2022-09-28T03:03:55.527Z,10.55
2022-09-28T03:06:33.616Z,10.53
2022-09-28T03:09:05.741Z,10.42
2022-09-28T03:11:36.232Z,10.45
2022-09-28T03:13:58.416Z,10.35
2022-09-28T03:16:20.659Z,10.19
2022-09-28T03:18:42.941Z,10.22
2022-09-28T03:21:05.518Z,10.28
2022-09-28T03:23:26.937Z,10.38
2022-09-28T03:25:48.374Z,10.38
2022-09-28T03:28:09.799Z,10.45
2022-09-28T03:30:31.496Z,10.46
2022-09-28T03:33:00.320Z,10.47
2022-09-28T03:35:21.786Z,10.38
2022-09-28T03:37:43.186Z,10.37
2022-09-28T03:40:05.441Z,10.42
2022-09-28T03:42:26.879Z,10.45
2022-09-28T03:44:48.346Z,10.49
2022-09-28T03:47:10.487Z,10.47
2022-09-28T03:49:31.942Z,10.45
2022-09-28T03:51:53.437Z,10.35
2022-09-28T03:54:14.948Z,10.31
2022-09-28T03:56:36.403Z,10.28
2022-09-28T03:58:57.840Z,10.24
2022-09-28T04:01:19.324Z,10.38
2022-09-28T04:03:40.826Z,10.33
2022-09-28T04:06:02.323Z,10.36
2022-09-28T04:08:23.828Z,10.40
2022-09-28T04:10:46.003Z,10.41
2022-09-28T04:13:07.441Z,10.10
2022-09-28T04:15:28.874Z,10.06
2022-09-28T04:17:50.765Z,10.23
2022-09-28T04:20:12.236Z,10.19
2022-09-28T04:22:33.675Z,10.17
2022-09-28T04:24:55.099Z,10.23
2022-09-28T04:27:34.996Z,10.23
2022-09-28T04:29:56.444Z,10.23
2022-09-28T04:32:17.907Z,10.24
2022-09-28T04:34:43.740Z,10.23
2022-09-28T04:37:05.671Z,10.22
2022-09-28T04:39:27.098Z,10.15
2022-09-28T04:41:49.009Z,9.98
2022-09-28T04:44:10.464Z,10.03
2022-09-28T04:46:32.401Z,10.03
2022-09-28T04:48:53.888Z,9.82
2022-09-28T04:51:15.400Z,9.77
2022-09-28T04:53:36.826Z,9.61
2022-09-28T04:56:06.606Z,9.62
2022-09-28T04:58:29.184Z,9.71
2022-09-28T05:00:51.355Z,9.73
2022-09-28T05:03:12.837Z,9.92
2022-09-28T05:05:34.252Z,10.08
2022-09-28T05:07:59.096Z,10.18
2022-09-28T05:10:20.551Z,10.08
2022-09-28T05:12:41.984Z,10.17
2022-09-28T05:15:03.956Z,10.34
2022-09-28T05:17:25.385Z,10.39
2022-09-28T05:19:46.827Z,10.32
2022-09-28T05:22:13.891Z,10.22
2022-09-28T05:24:35.336Z,10.06
2022-09-28T05:26:56.944Z,10.16
2022-09-28T05:29:18.561Z,10.15
2022-09-28T05:31:40.270Z,10.04
2022-09-28T05:34:01.785Z,9.88
2022-09-28T05:36:23.934Z,9.92
2022-09-28T05:38:45.912Z,9.64
2022-09-28T05:41:07.433Z,9.54
2022-09-28T05:43:29.177Z,9.33
2022-09-28T05:45:55.426Z,9.17
2022-09-28T05:48:17.221Z,9.05
2022-09-28T05:50:38.652Z,8.90
2022-09-28T05:53:10.142Z,8.87
2022-09-28T05:55:32.401Z,8.90
2022-09-28T05:57:53.910Z,8.85
2022-09-28T06:00:15.376Z,8.86
2022-09-28T06:02:36.956Z,8.83
2022-09-28T06:04:58.401Z,8.84
2022-09-28T06:07:21.912Z,8.79
2022-09-28T06:09:43.862Z,8.85
2022-09-28T06:12:05.272Z,8.83
2022-09-28T06:14:26.802Z,8.84
2022-09-28T06:16:48.294Z,8.71
2022-09-28T06:19:10.565Z,8.62
2022-09-28T06:21:31.993Z,8.68
2022-09-28T06:23:53.499Z,8.80
2022-09-28T06:26:15.162Z,8.67
2022-09-28T06:28:37.416Z,8.63
2022-09-28T06:31:01.835Z,8.60
2022-09-28T06:33:25.638Z,8.67
2022-09-28T06:35:47.172Z,8.75
2022-09-28T06:38:08.823Z,8.77
2022-09-28T06:40:31.129Z,8.79
2022-09-28T06:43:21.002Z,8.73
2022-09-28T06:45:43.672Z,8.71
2022-09-28T06:48:05.660Z,8.92
2022-09-28T06:50:35.927Z,8.93
2022-09-28T06:52:57.377Z,8.84
2022-09-28T06:55:19.140Z,8.87
2022-09-28T06:57:40.590Z,8.96
2022-09-28T07:00:02.032Z,9.13
2022-09-28T07:02:23.527Z,9.13
2022-09-28T07:04:45.016Z,9.18
2022-09-28T07:07:08.994Z,9.00
2022-09-28T07:09:33.448Z,9.02
2022-09-28T07:11:55.906Z,9.01
2022-09-28T07:14:32.110Z,9.08
2022-09-28T07:17:12.502Z,9.14
2022-09-28T07:19:36.506Z,9.20
2022-09-28T07:22:04.716Z,9.11
2022-09-28T07:24:26.382Z,9.20
2022-09-28T07:26:47.846Z,9.29
2022-09-28T07:29:09.339Z,9.32
2022-09-28T07:31:32.290Z,9.53
2022-09-28T07:33:53.968Z,9.53
2022-09-28T07:36:18.515Z,9.54
2022-09-28T07:38:41.304Z,9.52
2022-09-28T07:41:11.805Z,9.35
2022-09-28T07:43:33.329Z,9.43
2022-09-28T07:45:54.985Z,9.50
2022-09-28T07:48:17.180Z,9.61
2022-09-28T07:50:38.601Z,9.60
2022-09-28T07:53:00.677Z,9.61
2022-09-28T07:55:22.099Z,9.57
2022-09-28T07:57:44.461Z,9.59
2022-09-28T08:00:09.153Z,9.71
2022-09-28T08:02:33.602Z,9.99
2022-09-28T08:04:55.024Z,10.01
2022-09-28T08:07:24.275Z,10.01
2022-09-28T08:09:46.235Z,10.06
2022-09-28T08:12:08.269Z,10.08
2022-09-28T08:14:34.316Z,10.13
2022-09-28T08:16:55.764Z,10.23
2022-09-28T08:19:17.329Z,10.29
2022-09-28T08:21:47.619Z,10.25
2022-09-28T08:24:09.050Z,10.23
2022-09-28T08:26:30.487Z,10.09
2022-09-28T08:28:51.898Z,9.97
2022-09-28T08:31:13.398Z,9.84
2022-09-28T08:33:35.418Z,9.78
2022-09-28T08:35:58.858Z,9.79
2022-09-28T08:38:20.306Z,9.83
2022-09-28T08:40:54.854Z,9.64
2022-09-28T08:43:48.427Z,9.92
2022-09-28T08:46:12.469Z,10.02
2022-09-28T08:48:52.247Z,10.09
2022-09-28T08:51:22.929Z,10.07
2022-09-28T08:54:14.365Z,10.17
2022-09-28T08:56:42.984Z,10.23
2022-09-28T08:59:09.568Z,10.52
2022-09-28T09:01:41.162Z,10.78
2022-09-28T09:04:05.264Z,10.98
2022-09-28T09:06:54.318Z,11.00
2022-09-28T09:09:47.896Z,11.11
2022-09-28T09:15:38.830Z,11.39
2022-09-28T09:18:19.842Z,11.24
2022-09-28T09:20:53.543Z,11.34
2022-09-28T09:23:39.171Z,11.31
2022-09-28T09:26:23.183Z,11.24
2022-09-28T09:28:57.974Z,11.23
2022-09-28T09:31:50.316Z,11.32
2022-09-28T09:34:30.755Z,11.54
2022-09-28T09:37:09.187Z,11.50
2022-09-28T09:39:58.806Z,11.31
2022-09-28T09:42:33.867Z,11.66
2022-09-28T09:45:10.603Z,11.63
2022-09-28T09:47:45.852Z,11.69
2022-09-28T09:50:39.921Z,11.53
2022-09-28T09:53:45.953Z,11.51
2022-09-28T09:56:18.202Z,11.68
2022-09-28T09:58:47.956Z,11.67
2022-09-28T10:01:13.900Z,11.67
2022-09-28T10:03:39.597Z,11.84
2022-09-28T10:06:09.229Z,12.00
2022-09-28T10:08:37.890Z,12.25
2022-09-28T10:11:11.190Z,12.49
2022-09-28T10:13:32.892Z,12.61
2022-09-28T10:15:55.475Z,12.90
2022-09-28T10:18:19.947Z,12.95
2022-09-28T10:20:44.985Z,13.02
2022-09-28T10:23:17.416Z,13.12
2022-09-28T10:25:38.919Z,13.43
2022-09-28T10:28:02.954Z,13.32
2022-09-28T10:30:25.657Z,13.27
2022-09-28T10:32:49.220Z,12.94
2022-09-28T10:35:40.049Z,12.76
2022-09-28T10:38:07.578Z,12.70
2022-09-28T10:40:40.508Z,12.59
2022-09-28T10:43:07.781Z,12.79
2022-09-28T10:45:35.327Z,12.70
2022-09-28T10:48:00.865Z,12.80
2022-09-28T10:50:27.417Z,12.89
2022-09-28T10:52:49.005Z,12.81
2022-09-28T10:55:25.718Z,12.91
2022-09-28T10:57:48.175Z,13.21
2022-09-28T11:00:30.605Z,13.10
2022-09-28T11:02:53.020Z,12.97
2022-09-28T11:05:22.748Z,13.00
2022-09-28T11:07:46.976Z,12.80
2022-09-28T11:10:20.493Z,12.73
2022-09-28T11:12:45.551Z,12.74
2022-09-28T11:15:12.059Z,13.06
2022-09-28T11:17:40.447Z,12.99
2022-09-28T11:20:29.240Z,12.64
2022-09-28T11:22:59.464Z,12.66
2022-09-28T11:25:24.487Z,12.74
2022-09-28T11:27:52.150Z,12.57
2022-09-28T11:30:38.391Z,12.60
2022-09-28T11:33:10.676Z,13.02
2022-09-28T11:35:51.609Z,13.44
2022-09-28T11:38:34.931Z,13.59
2022-09-28T11:41:10.239Z,13.71
2022-09-28T11:44:00.585Z,13.69
2022-09-28T11:46:33.408Z,13.50
2022-09-28T11:48:59.898Z,13.52
2022-09-28T11:51:26.741Z,13.59
2022-09-28T11:53:53.534Z,13.87
2022-09-28T11:56:17.783Z,13.59
2022-09-28T11:58:53.429Z,13.64
2022-09-28T12:01:36.336Z,13.46
2022-09-28T12:04:03.890Z,13.28
2022-09-28T12:06:35.738Z,13.42
2022-09-28T12:09:06.848Z,13.36
2022-09-28T12:11:36.152Z,13.51
2022-09-28T12:14:00.734Z,13.56
2022-09-28T12:17:00.553Z,13.63
2022-09-28T12:19:21.866Z,13.31
2022-09-28T12:22:00.204Z,13.10
2022-09-28T12:24:33.147Z,12.72
2022-09-28T12:26:58.386Z,12.08
2022-09-28T12:30:04.268Z,11.79
2022-09-28T12:32:37.520Z,11.51
2022-09-28T12:34:58.981Z,11.34
2022-09-28T12:37:29.298Z,11.54
2022-09-28T12:40:21.529Z,11.74
2022-09-28T12:43:01.443Z,12.02
2022-09-28T12:45:53.072Z,12.12
2022-09-28T12:48:19.052Z,11.94
2022-09-28T12:51:11.060Z,12.04
2022-09-28T12:53:53.329Z,11.91
2022-09-28T12:57:02.910Z,11.90
2022-09-28T12:59:46.784Z,11.85
2022-09-28T13:02:20.222Z,11.84
2022-09-28T13:05:10.204Z,11.79
2022-09-28T13:07:34.568Z,12.24
2022-09-28T13:10:33.760Z,12.66
2022-09-28T13:13:31.463Z,13.24
2022-09-28T13:16:09.645Z,13.64
2022-09-28T13:18:39.250Z,13.81
2022-09-28T13:21:05.349Z,13.86
2022-09-28T13:23:35.520Z,13.86
2022-09-28T13:26:11.013Z,13.75
2022-09-28T13:28:34.303Z,13.49
2022-09-28T13:33:33.744Z,12.78
2022-09-28T13:35:55.204Z,12.77
2022-09-28T13:38:16.543Z,12.82
2022-09-28T13:41:06.067Z,12.59
2022-09-28T13:43:35.248Z,12.40
2022-09-28T13:46:03.280Z,12.12
2022-09-28T13:48:44.893Z,11.92
2022-09-28T13:51:15.319Z,12.12
2022-09-28T13:53:45.663Z,11.90
2022-09-28T13:56:34.771Z,11.59
2022-09-28T13:59:12.194Z,11.62
2022-09-28T14:01:40.923Z,11.73
2022-09-28T14:04:19.112Z,11.86
2022-09-28T14:06:55.548Z,11.92
2022-09-28T14:09:41.016Z,11.95
2022-09-28T14:12:04.318Z,11.81
2022-09-28T14:14:43.670Z,11.75
2022-09-28T14:17:27.309Z,11.79
2022-09-28T14:20:15.144Z,11.54
2022-09-28T14:23:05.423Z,11.67
2022-09-28T14:25:31.322Z,12.00
2022-09-28T14:28:40.092Z,11.94
2022-09-28T14:31:08.587Z,12.12
2022-09-28T14:33:32.926Z,12.00
2022-09-28T14:35:57.678Z,12.16
2022-09-28T14:38:40.935Z,12.29
2022-09-28T14:41:15.118Z,12.20
2022-09-28T14:43:45.738Z,12.38
2022-09-28T14:46:19.984Z,12.50
2022-09-28T14:48:47.948Z,12.94
2022-09-28T14:51:27.518Z,13.35
2022-09-28T14:53:50.623Z,13.43
2022-09-28T14:56:14.121Z,12.75
2022-09-28T14:58:36.642Z,12.55
2022-09-28T15:01:05.364Z,12.56
2022-09-28T15:03:30.383Z,12.28
2022-09-28T15:05:52.359Z,12.03
2022-09-28T15:08:14.739Z,12.04
2022-09-28T15:10:45.472Z,12.14
2022-09-28T15:13:21.917Z,12.06
2022-09-28T15:15:51.368Z,11.95
2022-09-28T15:18:20.403Z,12.01
2022-09-28T15:20:46.873Z,11.71
2022-09-28T15:23:24.563Z,11.58
2022-09-28T15:25:52.625Z,11.47
2022-09-28T15:28:22.168Z,11.56
2022-09-28T15:30:43.823Z,11.75
2022-09-28T15:33:24.020Z,11.72
2022-09-28T15:35:59.318Z,11.79
2022-09-28T15:38:20.959Z,11.86
2022-09-28T15:40:43.276Z,11.82
2022-09-28T15:43:26.843Z,11.92
2022-09-28T15:46:02.727Z,11.82
2022-09-28T15:48:31.702Z,11.75
2022-09-28T15:51:12.220Z,11.75
2022-09-28T15:53:34.051Z,11.56
2022-09-28T15:56:01.242Z,11.68
2022-09-28T15:58:24.364Z,11.48
2022-09-28T16:00:47.719Z,11.51
2022-09-28T16:03:09.346Z,11.31
2022-09-28T16:05:53.107Z,11.28
2022-09-28T16:08:38.972Z,11.14
2022-09-28T16:11:25.879Z,11.02
2022-09-28T16:14:27.111Z,10.92
2022-09-28T16:16:51.087Z,11.03
2022-09-28T16:19:39.336Z,11.06
2022-09-28T16:22:06.390Z,11.04
2022-09-28T16:24:49.800Z,10.99
2022-09-28T16:27:25.999Z,10.97
2022-09-28T16:30:24.388Z,11.02
2022-09-28T16:32:53.511Z,11.17
2022-09-28T16:35:21.518Z,11.13
2022-09-28T16:37:43.044Z,10.91
2022-09-28T16:40:04.980Z,10.72
2022-09-28T16:42:27.862Z,10.69
2022-09-28T16:44:49.309Z,10.66
2022-09-28T16:47:10.736Z,10.65
2022-09-28T16:49:32.962Z,10.59
2022-09-28T16:51:54.477Z,10.47
2022-09-28T16:54:37.856Z,10.45
2022-09-28T16:57:00.343Z,10.41
2022-09-28T16:59:22.344Z,10.48
2022-09-28T17:01:43.975Z,10.70
2022-09-28T17:04:06.648Z,10.68
2022-09-28T17:06:28.150Z,10.78
2022-09-28T17:08:49.615Z,10.83
2022-09-28T17:11:20.484Z,11.01
2022-09-28T17:13:45.818Z,10.92
2022-09-28T17:16:12.856Z,10.97
2022-09-28T17:18:37.527Z,10.90
2022-09-28T17:21:03.302Z,10.63
2022-09-28T17:23:24.776Z,10.55
2022-09-28T17:25:46.217Z,10.52
2022-09-28T17:28:17.791Z,10.48
2022-09-28T17:30:39.273Z,10.38
2022-09-28T17:33:01.620Z,10.37
2022-09-28T17:35:24.668Z,10.37
2022-09-28T17:37:46.993Z,10.42
2022-09-28T17:40:19.341Z,10.47
2022-09-28T17:42:41.074Z,10.57
2022-09-28T17:45:02.514Z,10.52
2022-09-28T17:47:23.965Z,10.59
2022-09-28T17:49:46.111Z,10.44
2022-09-28T17:52:08.443Z,10.40
2022-09-28T17:54:29.949Z,10.39
2022-09-28T17:56:51.401Z,10.56
2022-09-28T17:59:16.093Z,10.78
2022-09-28T18:01:39.699Z,10.94
2022-09-28T18:04:03.921Z,10.99
2022-09-28T18:06:25.413Z,11.13
2022-09-28T18:08:47.009Z,11.19
2022-09-28T18:11:08.819Z,11.24
2022-09-28T18:13:30.322Z,11.28
2022-09-28T18:15:52.671Z,11.31
2022-09-28T18:18:14.232Z,11.44
2022-09-28T18:20:37.134Z,11.44
2022-09-28T18:22:58.677Z,11.47
2022-09-28T18:25:20.155Z,11.43
2022-09-28T18:27:41.728Z,11.42
2022-09-28T18:30:04.518Z,11.36
2022-09-28T18:32:26.055Z,11.33
2022-09-28T18:34:47.513Z,11.29
2022-09-28T18:37:10.076Z,11.28
2022-09-28T18:39:31.794Z,11.31
2022-09-28T18:41:53.289Z,11.27
2022-09-28T18:44:14.790Z,11.28
2022-09-28T18:46:36.720Z,11.23
2022-09-28T18:48:58.282Z,11.20
2022-09-28T18:51:20.607Z,11.14
2022-09-28T18:53:42.364Z,11.05
2022-09-28T18:56:12.346Z,11.09
2022-09-28T18:58:38.136Z,11.09
2022-09-28T19:01:18.723Z,11.09
2022-09-28T19:03:41.188Z,11.06
2022-09-28T19:06:02.789Z,11.04
2022-09-28T19:08:27.514Z,10.99
2022-09-28T19:10:49.270Z,10.95
2022-09-28T19:13:10.740Z,10.90
2022-09-28T19:15:32.624Z,10.86
2022-09-28T19:17:54.152Z,10.82
2022-09-28T19:20:16.047Z,10.85
2022-09-28T19:22:37.524Z,10.84
2022-09-28T19:24:58.992Z,10.79
2022-09-28T19:27:20.482Z,10.74
2022-09-28T19:29:42.058Z,10.55
2022-09-28T19:32:03.551Z,10.18
2022-09-28T19:34:27.073Z,10.26
2022-09-28T19:36:48.574Z,10.32
2022-09-28T19:39:14.122Z,10.41
2022-09-28T19:41:43.475Z,10.22
2022-09-28T19:44:08.433Z,10.22
2022-09-28T19:46:31.654Z,10.17
2022-09-28T19:48:53.143Z,10.11
2022-09-28T19:51:14.622Z,10.24
2022-09-28T19:53:41.069Z,10.35
2022-09-28T19:56:05.627Z,10.25
2022-09-28T19:58:33.218Z,10.09
2022-09-28T20:00:54.761Z,9.97
2022-09-28T20:03:16.990Z,9.86
2022-09-28T20:05:41.347Z,9.69
2022-09-28T20:10:29.508Z,9.84
2022-09-28T20:12:51.609Z,9.97
2022-09-28T20:15:13.067Z,10.10
2022-09-28T20:17:36.657Z,10.18
2022-09-28T20:19:58.600Z,10.25
2022-09-28T20:22:20.359Z,10.31
2022-09-28T20:24:41.796Z,10.38
2022-09-28T20:27:03.437Z,10.33
2022-09-28T20:29:25.221Z,10.34
2022-09-28T20:31:46.773Z,10.34
2022-09-28T20:34:09.396Z,10.50
2022-09-28T20:36:33.998Z,10.52
2022-09-28T20:38:57.055Z,10.58
2022-09-28T20:41:20.196Z,10.65
2022-09-28T20:43:41.691Z,10.71
2022-09-28T20:46:05.022Z,10.76
2022-09-28T20:48:27.309Z,10.64
2022-09-28T20:50:48.825Z,10.64
2022-09-28T20:53:10.267Z,10.59
2022-09-28T20:55:31.734Z,10.60
2022-09-28T20:57:53.180Z,10.65
2022-09-28T21:00:15.339Z,10.63
2022-09-28T21:02:36.818Z,10.67
2022-09-28T21:04:58.570Z,10.69
2022-09-28T21:07:20.122Z,10.75
2022-09-28T21:09:41.632Z,10.76
2022-09-28T21:12:04.344Z,10.73
2022-09-28T21:14:26.777Z,10.69
2022-09-28T21:16:48.262Z,10.68
2022-09-28T21:19:09.724Z,10.76
2022-09-28T21:21:31.424Z,10.66
2022-09-28T21:23:57.060Z,10.71
2022-09-28T21:26:25.073Z,10.64
2022-09-28T21:28:46.640Z,10.55
2022-09-28T21:31:11.276Z,10.55
2022-09-28T21:33:33.335Z,10.57
2022-09-28T21:35:54.793Z,10.55
2022-09-28T21:38:16.549Z,10.53
2022-09-28T21:40:38.025Z,10.47
2022-09-28T21:42:59.745Z,10.47
2022-09-28T21:45:21.239Z,10.33
2022-09-28T21:47:47.404Z,10.35
2022-09-28T21:50:09.243Z,10.37
2022-09-28T21:52:30.676Z,10.40
2022-09-28T21:54:52.165Z,10.40
2022-09-28T21:57:13.609Z,10.31
2022-09-28T21:59:35.136Z,10.33
2022-09-28T22:01:56.622Z,10.35
2022-09-28T22:04:18.136Z,10.26
2022-09-28T22:06:39.818Z,10.25
2022-09-28T22:09:01.304Z,10.10
2022-09-28T22:11:25.594Z,10.07
2022-09-28T22:13:49.444Z,10.09
2022-09-28T22:16:12.736Z,9.96
2022-09-28T22:18:34.590Z,9.97
2022-09-28T22:21:08.984Z,10.03
2022-09-28T22:23:30.576Z,9.96
2022-09-28T22:25:58.557Z,9.95
2022-09-28T22:28:19.992Z,9.98
2022-09-28T22:30:41.445Z,9.81
2022-09-28T22:33:03.241Z,9.95
2022-09-28T22:35:24.670Z,9.88
2022-09-28T22:37:46.126Z,9.79
2022-09-28T22:40:08.184Z,9.77
2022-09-28T22:42:29.710Z,9.88
2022-09-28T22:44:51.115Z,9.91
2022-09-28T22:47:12.804Z,9.87
2022-09-28T22:49:34.272Z,9.61
2022-09-28T22:51:55.717Z,9.61
2022-09-28T22:54:17.208Z,9.71
2022-09-28T22:56:38.662Z,9.79
2022-09-28T22:59:00.101Z,9.78
2022-09-28T23:01:26.851Z,9.88
2022-09-28T23:03:49.797Z,9.94
2022-09-28T23:06:13.380Z,9.97
2022-09-28T23:08:35.642Z,9.91
2022-09-28T23:10:57.110Z,9.87
2022-09-28T23:13:19.307Z,9.81
2022-09-28T23:15:41.120Z,9.92
2022-09-28T23:18:02.593Z,9.93
2022-09-28T23:20:24.108Z,10.00
2022-09-28T23:22:47.708Z,9.93
2022-09-28T23:25:09.426Z,10.03
2022-09-28T23:27:30.874Z,10.08
2022-09-28T23:29:54.267Z,10.13
2022-09-28T23:32:16.870Z,10.15
2022-09-28T23:34:38.374Z,10.20
2022-09-28T23:36:59.850Z,10.25
2022-09-28T23:39:21.309Z,10.27
2022-09-28T23:41:42.771Z,10.31
2022-09-28T23:44:04.625Z,10.30
2022-09-28T23:46:26.280Z,10.24
2022-09-28T23:48:48.236Z,10.32
2022-09-28T23:51:09.677Z,10.36
2022-09-28T23:53:32.347Z,10.42
2022-09-28T23:55:54.399Z,10.47
2022-09-28T23:58:15.882Z,10.46
